createdAt,value
2022-09-29T00:01:06.817Z,16.31
2022-09-29T00:03:34.416Z,16.28
2022-09-29T00:06:02.137Z,16.29
2022-09-29T00:08:31.689Z,16.26
2022-09-29T00:10:59.200Z,16.28
2022-09-29T00:13:26.550Z,16.34
2022-09-29T00:16:02.638Z,16.34
2022-09-29T00:18:31.553Z,16.39
2022-09-29T00:21:03.544Z,16.30
2022-09-29T00:23:32.347Z,16.26
2022-09-29T00:26:21.098Z,16.24
2022-09-29T00:28:53.026Z,16.23
2022-09-29T00:31:21.577Z,16.26
2022-09-29T00:33:49.258Z,16.25
2022-09-29T00:36:30.455Z,16.24
2022-09-29T00:38:58.640Z,16.14
2022-09-29T00:41:33.845Z,16.07
2022-09-29T00:44:01.021Z,16.07
2022-09-29T00:46:55.916Z,16.08
2022-09-29T00:49:39.164Z,16.05
2022-09-29T00:52:47.723Z,15.99
2022-09-29T00:55:28.096Z,15.90
2022-09-29T00:58:08.787Z,15.78
2022-09-29T01:00:37.553Z,15.73
2022-09-29T01:03:15.775Z,15.74
2022-09-29T01:05:49.044Z,15.66
2022-09-29T01:08:39.699Z,15.62
2022-09-29T01:11:07.231Z,15.55
2022-09-29T01:13:35.720Z,15.56
2022-09-29T01:16:03.203Z,15.53
2022-09-29T01:18:31.669Z,15.49
2022-09-29T01:21:19.325Z,15.56
2022-09-29T01:24:17.377Z,15.56
2022-09-29T01:27:10.905Z,15.52
2022-09-29T01:29:56.567Z,15.50
2022-09-29T01:32:34.795Z,15.40
2022-09-29T01:35:30.040Z,15.51
2022-09-29T01:38:25.347Z,15.53
2022-09-29T01:41:12.256Z,15.55
2022-09-29T01:43:48.423Z,15.49
2022-09-29T01:46:26.000Z,15.50
2022-09-29T01:48:56.970Z,15.45
2022-09-29T01:51:50.041Z,15.44
2022-09-29T01:54:25.697Z,15.52
2022-09-29T01:57:00.495Z,15.40
2022-09-29T01:59:44.139Z,15.31
2022-09-29T02:02:17.688Z,15.27
2022-09-29T02:04:54.109Z,15.32
2022-09-29T02:07:32.156Z,15.26
2022-09-29T02:10:24.446Z,15.27
2022-09-29T02:12:54.314Z,15.22
2022-09-29T02:15:29.199Z,15.18
2022-09-29T02:18:00.912Z,15.16
2022-09-29T02:20:28.577Z,15.15
2022-09-29T02:22:56.272Z,15.17
2022-09-29T02:25:24.383Z,15.18
2022-09-29T02:27:51.580Z,15.13
2022-09-29T02:30:19.108Z,15.15
2022-09-29T02:32:48.079Z,15.16
2022-09-29T02:35:16.341Z,15.20
2022-09-29T02:38:12.482Z,15.16
2022-09-29T02:41:05.384Z,15.01
2022-09-29T02:43:54.705Z,14.98
2022-09-29T02:46:49.594Z,15.06
2022-09-29T02:49:32.167Z,15.10
2022-09-29T02:52:18.168Z,14.99
2022-09-29T02:55:33.482Z,14.94
2022-09-29T02:58:13.571Z,14.84
2022-09-29T03:00:41.668Z,14.69
2022-09-29T03:03:08.729Z,14.73
2022-09-29T03:05:35.903Z,14.74
2022-09-29T03:08:03.400Z,14.73
2022-09-29T03:10:30.639Z,14.65
2022-09-29T03:12:57.856Z,14.64
2022-09-29T03:15:25.112Z,14.59
2022-09-29T03:17:57.380Z,14.58
2022-09-29T03:20:26.142Z,14.56
2022-09-29T03:22:56.773Z,14.40
2022-09-29T03:25:24.768Z,14.36
2022-09-29T03:27:52.469Z,14.43
2022-09-29T03:30:19.730Z,14.35
2022-09-29T03:32:46.717Z,14.41
2022-09-29T03:35:13.783Z,14.38
2022-09-29T03:37:41.060Z,14.33
2022-09-29T03:40:09.145Z,14.36
2022-09-29T03:42:36.252Z,14.32
2022-09-29T03:45:03.909Z,14.36
2022-09-29T03:47:31.964Z,14.33
2022-09-29T03:49:59.409Z,14.34
2022-09-29T03:52:27.417Z,14.35
2022-09-29T03:54:54.763Z,14.27
2022-09-29T03:57:22.758Z,14.13
2022-09-29T03:59:49.988Z,14.08
2022-09-29T04:02:18.611Z,14.01
2022-09-29T04:04:46.950Z,14.04
2022-09-29T04:07:14.383Z,14.01
2022-09-29T04:09:42.140Z,14.04
2022-09-29T04:12:09.225Z,14.14
2022-09-29T04:14:36.479Z,14.11
2022-09-29T04:17:07.556Z,14.03
2022-09-29T04:19:34.935Z,13.99
2022-09-29T04:22:02.742Z,13.97
2022-09-29T04:24:30.908Z,13.98
2022-09-29T04:26:58.020Z,13.93
2022-09-29T04:29:25.197Z,13.95
2022-09-29T04:31:52.307Z,14.00
2022-09-29T04:34:20.702Z,14.04
2022-09-29T04:36:47.963Z,14.07
2022-09-29T04:39:15.219Z,14.08
2022-09-29T04:41:42.203Z,14.10
2022-09-29T04:44:09.674Z,14.15
2022-09-29T04:46:37.290Z,14.15
2022-09-29T04:49:06.001Z,14.27
2022-09-29T04:51:34.427Z,14.30
2022-09-29T04:54:05.644Z,14.35
2022-09-29T04:56:32.870Z,14.43
2022-09-29T04:59:00.038Z,14.46
2022-09-29T05:01:27.787Z,14.52
2022-09-29T05:03:54.907Z,14.60
2022-09-29T05:06:22.355Z,14.67
2022-09-29T05:08:49.470Z,14.73
2022-09-29T05:11:16.772Z,14.76
2022-09-29T05:13:43.837Z,14.89
2022-09-29T05:16:11.335Z,14.98
2022-09-29T05:18:38.534Z,15.16
2022-09-29T05:23:55.198Z,15.50
2022-09-29T05:26:22.414Z,15.61
2022-09-29T05:28:50.164Z,15.71
2022-09-29T05:31:18.208Z,15.75
2022-09-29T05:33:45.498Z,15.82
2022-09-29T05:36:13.429Z,15.87
2022-09-29T05:38:41.093Z,15.96
2022-09-29T05:41:13.590Z,16.05
2022-09-29T05:43:41.025Z,16.09
2022-09-29T05:46:10.955Z,16.19
2022-09-29T05:48:38.649Z,16.27
2022-09-29T05:51:11.650Z,16.35
2022-09-29T05:53:39.879Z,16.38
2022-09-29T05:56:08.969Z,16.46
2022-09-29T05:58:37.689Z,16.46
2022-09-29T09:36:34.741Z,24.76
2022-09-29T09:39:14.670Z,24.78
2022-09-29T09:41:46.146Z,24.81
2022-09-29T09:44:21.262Z,24.92
2022-09-29T09:47:12.979Z,25.02
2022-09-29T09:49:43.531Z,24.99
2022-09-29T09:52:18.248Z,24.85
2022-09-29T09:54:53.353Z,24.99
2022-09-29T09:57:42.336Z,25.03
2022-09-29T10:00:14.216Z,24.95
2022-09-29T10:02:53.124Z,24.86
2022-09-29T10:05:24.689Z,24.97
2022-09-29T10:07:53.370Z,25.10
2022-09-29T10:10:30.136Z,25.26
2022-09-29T10:13:00.082Z,25.48
2022-09-29T10:15:40.767Z,25.58
2022-09-29T10:18:23.407Z,25.74
2022-09-29T10:20:50.839Z,25.79
2022-09-29T10:23:26.201Z,25.90
2022-09-29T10:25:59.047Z,25.98
2022-09-29T10:28:31.270Z,25.82
2022-09-29T10:30:59.322Z,25.89
2022-09-29T10:33:27.108Z,26.03
2022-09-29T10:36:08.557Z,26.05
2022-09-29T10:38:37.473Z,26.00
2022-09-29T10:41:07.541Z,26.01
2022-09-29T10:43:36.748Z,26.12
2022-09-29T10:46:08.877Z,26.19
2022-09-29T10:48:37.208Z,26.14
2022-09-29T10:51:06.244Z,25.98
2022-09-29T10:53:39.091Z,26.01
2022-09-29T10:56:18.680Z,26.11
2022-09-29T10:59:01.791Z,26.16
2022-09-29T11:01:35.465Z,26.31
2022-09-29T11:04:16.898Z,26.35
2022-09-29T11:06:44.498Z,26.29
2022-09-29T11:09:15.930Z,26.51
2022-09-29T11:12:00.376Z,26.60
2022-09-29T11:14:40.370Z,26.62
2022-09-29T11:17:26.834Z,26.71
2022-09-29T11:20:00.493Z,26.75
2022-09-29T11:22:39.536Z,26.85
2022-09-29T11:25:37.921Z,27.07
2022-09-29T11:28:44.804Z,27.38
2022-09-29T11:31:35.403Z,27.57
2022-09-29T11:34:21.599Z,27.69
2022-09-29T11:37:10.651Z,27.58
2022-09-29T11:40:13.024Z,27.40
2022-09-29T11:43:05.909Z,27.40
2022-09-29T11:46:05.793Z,27.41
2022-09-29T11:49:05.140Z,27.50
2022-09-29T11:51:35.489Z,27.62
2022-09-29T11:54:30.428Z,27.68
2022-09-29T11:57:20.892Z,27.75
2022-09-29T12:00:11.372Z,27.67
2022-09-29T12:03:13.877Z,27.65
2022-09-29T12:06:03.102Z,27.70
2022-09-29T12:08:49.050Z,27.85
2022-09-29T12:14:41.186Z,27.41
2022-09-29T12:17:20.215Z,27.42
2022-09-29T12:19:53.740Z,27.32
2022-09-29T12:22:24.666Z,27.27
2022-09-29T12:25:03.566Z,26.94
2022-09-29T12:27:40.146Z,26.94
2022-09-29T12:30:11.453Z,26.93
2022-09-29T12:32:52.377Z,26.92
2022-09-29T12:35:46.918Z,26.94
2022-09-29T12:38:28.707Z,26.84
2022-09-29T12:41:23.817Z,26.90
2022-09-29T12:44:19.075Z,26.84
2022-09-29T12:46:47.913Z,26.77
2022-09-29T12:49:29.503Z,26.64
2022-09-29T12:51:58.225Z,26.59
2022-09-29T12:54:37.459Z,26.57
2022-09-29T12:57:25.482Z,26.50
2022-09-29T13:00:01.986Z,26.38
2022-09-29T13:02:35.002Z,26.37
2022-09-29T13:05:42.017Z,26.45
2022-09-29T13:08:34.102Z,26.54
2022-09-29T13:11:22.930Z,26.68
2022-09-29T13:14:18.734Z,26.73
2022-09-29T13:16:55.706Z,26.78
2022-09-29T13:19:59.658Z,26.82
2022-09-29T13:22:53.656Z,26.69
2022-09-29T13:25:25.594Z,26.78
2022-09-29T13:27:55.906Z,26.75
2022-09-29T13:30:30.280Z,26.78
2022-09-29T13:33:09.728Z,26.83
2022-09-29T13:35:43.455Z,26.82
2022-09-29T13:38:34.338Z,26.66
2022-09-29T13:41:22.669Z,26.64
2022-09-29T13:43:50.122Z,26.65
2022-09-29T13:46:32.765Z,26.59
2022-09-29T13:49:09.279Z,26.44
2022-09-29T13:51:50.081Z,26.22
2022-09-29T13:54:36.446Z,26.21
2022-09-29T13:57:12.390Z,26.11
2022-09-29T13:59:47.320Z,26.04
2022-09-29T14:02:42.940Z,26.14
2022-09-29T14:05:25.811Z,26.15
2022-09-29T14:07:56.109Z,26.20
2022-09-29T14:10:35.816Z,26.29
2022-09-29T14:13:05.537Z,26.32
2022-09-29T14:15:38.905Z,26.37
2022-09-29T14:18:20.396Z,26.48
2022-09-29T14:21:05.409Z,26.54
2022-09-29T14:23:45.729Z,26.58
2022-09-29T14:26:47.188Z,26.50
2022-09-29T14:29:27.585Z,26.43
2022-09-29T14:31:58.583Z,26.36
2022-09-29T14:34:30.521Z,26.28
2022-09-29T14:37:10.595Z,26.27
2022-09-29T14:39:40.667Z,26.16
2022-09-29T14:42:17.364Z,26.03
2022-09-29T14:45:03.639Z,25.86
2022-09-29T14:48:01.729Z,25.81
2022-09-29T14:51:35.461Z,25.74
2022-09-29T14:54:29.302Z,25.63
2022-09-29T14:57:23.288Z,25.70
2022-09-29T15:00:17.423Z,25.63
2022-09-29T15:03:00.021Z,25.52
2022-09-29T15:05:37.607Z,25.53
2022-09-29T15:08:24.209Z,25.29
2022-09-29T15:10:51.608Z,25.33
2022-09-29T15:13:28.337Z,25.35
2022-09-29T15:16:07.304Z,25.32
2022-09-29T15:18:48.399Z,25.21
2022-09-29T15:21:22.580Z,25.29
2022-09-29T15:24:27.921Z,25.26
2022-09-29T15:26:55.908Z,25.14
2022-09-29T15:29:24.962Z,24.99
2022-09-29T15:31:52.382Z,24.97
2022-09-29T15:34:22.556Z,24.91
2022-09-29T15:36:55.520Z,24.78
2022-09-29T15:39:37.547Z,24.75
2022-09-29T15:42:25.560Z,24.64
2022-09-29T15:45:03.692Z,24.35
2022-09-29T15:47:39.924Z,24.39
2022-09-29T15:50:19.881Z,24.28
2022-09-29T15:52:47.379Z,24.20
2022-09-29T15:55:18.727Z,24.12
2022-09-29T15:57:53.277Z,24.01
2022-09-29T16:00:23.641Z,23.89
2022-09-29T16:02:52.928Z,23.85
2022-09-29T16:05:23.706Z,23.42
2022-09-29T16:08:04.229Z,23.67
2022-09-29T16:10:48.446Z,23.57
2022-09-29T16:13:28.652Z,23.41
2022-09-29T16:16:05.322Z,23.33
2022-09-29T16:18:45.468Z,23.06
2022-09-29T16:21:19.705Z,22.99
2022-09-29T16:24:06.087Z,22.93
2022-09-29T16:26:42.871Z,22.78
2022-09-29T16:29:10.530Z,22.67
2022-09-29T16:31:40.357Z,22.50
2022-09-29T16:34:37.370Z,22.38
2022-09-29T16:37:16.050Z,22.28
2022-09-29T16:39:47.217Z,22.17
2022-09-29T16:42:28.531Z,21.99
2022-09-29T16:45:02.614Z,21.97
2022-09-29T16:47:35.101Z,21.85
2022-09-29T16:50:15.120Z,21.76
2022-09-29T16:52:53.016Z,21.66
2022-09-29T16:55:28.157Z,21.59
2022-09-29T16:58:08.418Z,21.55
2022-09-29T17:00:39.291Z,21.39
2022-09-29T17:03:06.812Z,21.35
2022-09-29T17:05:47.823Z,21.27
2022-09-29T17:08:29.792Z,21.21
2022-09-29T17:11:14.772Z,21.17
2022-09-29T17:13:44.861Z,21.06
2022-09-29T17:16:21.895Z,21.09
2022-09-29T17:18:57.905Z,21.05
2022-09-29T17:21:25.358Z,20.99
2022-09-29T17:23:54.959Z,20.86
2022-09-29T17:26:55.195Z,20.86
2022-09-29T17:29:22.986Z,20.74
2022-09-29T17:32:03.287Z,20.71
2022-09-29T17:34:49.341Z,20.64
2022-09-29T17:37:19.861Z,20.57
2022-09-29T17:40:11.302Z,20.52
2022-09-29T17:42:38.899Z,20.45
2022-09-29T17:45:10.034Z,20.34
2022-09-29T17:47:37.634Z,20.28
2022-09-29T17:50:31.562Z,20.20
2022-09-29T17:53:00.323Z,20.18
2022-09-29T17:55:28.146Z,20.14
2022-09-29T17:57:56.017Z,20.07
2022-09-29T18:00:26.096Z,19.93
2022-09-29T18:02:57.618Z,19.98
2022-09-29T18:05:26.057Z,19.84
2022-09-29T18:07:57.375Z,19.87
2022-09-29T18:10:50.114Z,19.84
2022-09-29T18:13:20.294Z,19.79
2022-09-29T18:15:48.610Z,19.81
2022-09-29T18:18:21.158Z,19.78
2022-09-29T18:20:50.687Z,19.74
2022-09-29T18:23:19.564Z,19.73
2022-09-29T18:25:50.919Z,19.62
2022-09-29T18:28:19.834Z,19.59
2022-09-29T18:31:13.924Z,19.43
2022-09-29T18:33:41.770Z,19.19
2022-09-29T18:36:10.431Z,19.21
2022-09-29T18:38:37.847Z,19.16
2022-09-29T18:41:11.110Z,19.16
2022-09-29T18:43:38.351Z,19.14
2022-09-29T18:46:09.723Z,19.06
2022-09-29T18:48:36.892Z,18.90
2022-09-29T18:51:04.574Z,18.83
2022-09-29T18:53:33.712Z,18.79
2022-09-29T18:56:04.417Z,18.77
2022-09-29T18:58:33.477Z,18.63
2022-09-29T19:01:02.519Z,18.72
2022-09-29T19:03:31.824Z,18.75
2022-09-29T19:06:01.500Z,18.75
2022-09-29T19:08:34.567Z,18.70
2022-09-29T19:11:08.934Z,18.64
2022-09-29T19:13:39.371Z,18.63
2022-09-29T19:16:07.596Z,18.53
2022-09-29T19:18:35.440Z,18.49
2022-09-29T19:21:04.134Z,18.45
2022-09-29T19:23:31.658Z,18.43
2022-09-29T19:25:59.103Z,18.39
2022-09-29T19:28:27.584Z,18.38
2022-09-29T19:31:03.662Z,18.32
2022-09-29T19:33:30.959Z,18.26
2022-09-29T19:36:04.620Z,18.22
2022-09-29T19:38:32.366Z,18.22
2022-09-29T19:41:00.549Z,18.21
2022-09-29T19:43:33.672Z,18.05
2022-09-29T19:46:07.888Z,17.98
2022-09-29T19:48:35.225Z,18.00
2022-09-29T19:51:21.347Z,17.97
2022-09-29T19:53:49.808Z,18.01
2022-09-29T19:56:18.108Z,18.00
2022-09-29T19:58:45.351Z,17.92
2022-09-29T20:01:13.097Z,17.86
2022-09-29T20:03:41.923Z,17.88
2022-09-29T20:06:10.482Z,17.79
2022-09-29T20:08:37.892Z,17.65
2022-09-29T20:11:11.058Z,17.53
2022-09-29T20:13:39.093Z,17.45
2022-09-29T20:16:09.360Z,17.38
2022-09-29T20:18:37.594Z,17.38
2022-09-29T20:21:10.637Z,17.44
2022-09-29T20:23:42.190Z,17.37
2022-09-29T20:26:11.036Z,17.42
2022-09-29T20:28:40.346Z,17.40
2022-09-29T20:31:08.169Z,17.45
2022-09-29T20:33:36.473Z,17.47
2022-09-29T20:36:05.908Z,17.45
2022-09-29T20:38:34.542Z,17.40
2022-09-29T20:41:03.288Z,17.41
2022-09-29T20:43:30.673Z,17.41
2022-09-29T20:46:02.476Z,17.51
2022-09-29T20:48:32.015Z,17.50
2022-09-29T20:51:02.015Z,17.37
2022-09-29T20:53:32.926Z,17.54
2022-09-29T20:56:05.378Z,17.17
2022-09-29T20:58:33.545Z,17.53
2022-09-29T21:01:16.276Z,17.51
2022-09-29T21:03:44.425Z,17.57
2022-09-29T21:06:12.243Z,17.65
2022-09-29T21:08:41.492Z,17.66
2022-09-29T21:11:09.590Z,17.73
2022-09-29T21:13:37.463Z,17.82
2022-09-29T21:16:05.715Z,17.90
2022-09-29T21:18:38.595Z,17.91
2022-09-29T21:21:08.441Z,17.84
2022-09-29T21:23:37.810Z,17.77
2022-09-29T21:26:16.187Z,17.72
2022-09-29T21:28:52.423Z,17.65
2022-09-29T21:31:22.649Z,17.63
2022-09-29T21:33:54.747Z,17.59
2022-09-29T21:36:24.632Z,17.58
2022-09-29T21:38:52.238Z,17.48
2022-09-29T21:41:21.088Z,17.54
2022-09-29T21:43:55.214Z,17.49
2022-09-29T21:46:26.190Z,17.44
2022-09-29T21:48:56.454Z,17.39
2022-09-29T21:51:30.111Z,17.34
2022-09-29T21:54:02.911Z,17.36
2022-09-29T21:56:40.589Z,17.11
2022-09-29T21:59:09.720Z,17.29
2022-09-29T22:01:40.276Z,17.24
2022-09-29T22:04:08.513Z,17.28
2022-09-29T22:06:37.535Z,17.23
2022-09-29T22:09:07.573Z,17.22
2022-09-29T22:11:39.206Z,17.20
2022-09-29T22:14:14.398Z,17.21
2022-09-29T22:16:46.501Z,17.18
2022-09-29T22:19:25.806Z,17.12
2022-09-29T22:21:55.850Z,17.04
2022-09-29T22:24:24.310Z,17.05
2022-09-29T22:26:55.444Z,17.02
2022-09-29T22:29:23.051Z,16.89
2022-09-29T22:31:53.273Z,16.94
2022-09-29T22:34:22.943Z,16.94
2022-09-29T22:36:51.494Z,16.97
2022-09-29T22:39:21.123Z,16.93
2022-09-29T22:41:53.307Z,16.82
2022-09-29T22:44:20.589Z,16.80
2022-09-29T22:46:48.207Z,16.79
2022-09-29T22:49:22.682Z,16.88
2022-09-29T22:51:59.947Z,16.83
2022-09-29T22:54:30.650Z,16.84
2022-09-29T22:57:02.535Z,16.85
2022-09-29T22:59:34.452Z,16.84
2022-09-29T23:02:03.995Z,16.80
2022-09-29T23:04:31.335Z,16.79
2022-09-29T23:06:59.027Z,16.74
2022-09-29T23:09:26.331Z,16.78
2022-09-29T23:11:56.433Z,16.75
2022-09-29T23:14:23.836Z,16.79
2022-09-29T23:16:51.560Z,16.83
2022-09-29T23:19:19.859Z,16.89
2022-09-29T23:21:46.997Z,16.96
2022-09-29T23:24:15.062Z,17.00
2022-09-29T23:26:42.449Z,16.93
2022-09-29T23:29:12.401Z,16.87
2022-09-29T23:31:39.876Z,16.80
2022-09-29T23:34:06.962Z,16.78
2022-09-29T23:36:34.545Z,16.75
2022-09-29T23:39:11.834Z,16.80
2022-09-29T23:41:46.682Z,16.80
2022-09-29T23:44:20.108Z,16.77
2022-09-29T23:46:47.931Z,16.72
2022-09-29T23:49:17.453Z,16.58
2022-09-29T23:51:48.237Z,16.55
2022-09-29T23:54:18.356Z,16.54
2022-09-29T23:56:46.978Z,16.53
2022-09-29T23:59:15.069Z,16.42
